createdAt,value
2023-05-08T00:00:57.823Z,421.0000
2023-05-08T00:01:58.909Z,421.6923
2023-05-08T00:03:00.213Z,418.4615
2023-05-08T00:04:01.194Z,419.3846
2023-05-08T00:05:02.275Z,424.1538
2023-05-08T00:06:03.312Z,421.3077
2023-05-08T00:07:04.416Z,419.1538
2023-05-08T00:08:05.579Z,416.7692
2023-05-08T00:09:06.637Z,414.8462
2023-05-08T00:10:07.745Z,415.0000
2023-05-08T00:11:08.850Z,416.6154
2023-05-08T00:12:09.941Z,416.6154
2023-05-08T00:13:11.078Z,417.8462
2023-05-08T00:14:12.123Z,420.4615
2023-05-08T00:15:13.234Z,419.6154
2023-05-08T00:16:14.398Z,419.5385
2023-05-08T00:17:15.427Z,419.7692
2023-05-08T00:18:16.521Z,420.5385
2023-05-08T00:19:17.615Z,420.3077
2023-05-08T00:20:18.721Z,418.7692
2023-05-08T00:21:19.834Z,418.6923
2023-05-08T00:22:20.930Z,418.4615
2023-05-08T00:23:22.047Z,416.6923
2023-05-08T00:24:23.111Z,415.5385
2023-05-08T00:25:24.211Z,417.2308
2023-05-08T00:26:25.325Z,417.4615
2023-05-08T00:27:26.402Z,417.5385
2023-05-08T00:28:27.514Z,418.7692
2023-05-08T00:29:28.606Z,421.6923
2023-05-08T00:30:29.733Z,422.5385
2023-05-08T00:31:30.823Z,422.3846
2023-05-08T00:32:31.899Z,422.6923
2023-05-08T00:33:33.041Z,421.3077
2023-05-08T00:34:34.098Z,421.9231
2023-05-08T00:35:35.193Z,422.6923
2023-05-08T00:36:36.274Z,425.0000
2023-05-08T00:37:37.385Z,427.0000
2023-05-08T00:38:38.513Z,427.6154
2023-05-08T00:39:39.587Z,423.9231
2023-05-08T00:40:40.695Z,423.9231
2023-05-08T00:41:41.789Z,422.6154
2023-05-08T00:42:42.875Z,422.3846
2023-05-08T00:43:44.005Z,421.8462
2023-05-08T00:44:45.075Z,422.3077
2023-05-08T00:45:46.242Z,422.8462
2023-05-08T00:46:47.343Z,423.5385
2023-05-08T00:47:48.398Z,426.4615
2023-05-08T00:48:49.550Z,428.9231
2023-05-08T00:49:50.582Z,429.0000
2023-05-08T00:50:51.682Z,427.2308
2023-05-08T00:51:52.800Z,424.5385
2023-05-08T00:52:53.886Z,421.5385
2023-05-08T00:53:55.019Z,421.0000
2023-05-08T00:54:56.060Z,421.1538
2023-05-08T00:55:57.303Z,421.2308
2023-05-08T00:56:58.295Z,420.9231
2023-05-08T00:57:59.404Z,419.7692
2023-05-08T00:59:00.496Z,421.3846
2023-05-08T01:00:01.574Z,422.0000
2023-05-08T01:01:02.707Z,421.5385
2023-05-08T01:02:03.775Z,422.2308
2023-05-08T01:03:04.946Z,421.2308
2023-05-08T01:04:05.992Z,420.3846
2023-05-08T01:05:07.062Z,420.3077
2023-05-08T01:06:08.207Z,421.9231
2023-05-08T01:07:09.293Z,420.6154
2023-05-08T01:08:10.364Z,423.3846
2023-05-08T01:09:11.485Z,421.7692
2023-05-08T01:10:12.770Z,422.9231
2023-05-08T01:11:13.648Z,423.1538
2023-05-08T01:12:14.765Z,423.2308
2023-05-08T01:13:15.884Z,424.0000
2023-05-08T01:14:16.958Z,421.3846
2023-05-08T01:15:18.051Z,423.3846
2023-05-08T01:16:19.219Z,423.1538
2023-05-08T01:17:20.276Z,420.0769
2023-05-08T01:18:21.336Z,418.9231
2023-05-08T01:19:22.458Z,419.0769
2023-05-08T01:20:23.527Z,420.0769
2023-05-08T01:21:24.643Z,424.0000
2023-05-08T01:22:25.727Z,424.3846
2023-05-08T01:23:26.826Z,424.8462
2023-05-08T01:24:27.920Z,423.8462
2023-05-08T01:25:29.060Z,421.9231
2023-05-08T01:26:30.142Z,420.4615
2023-05-08T01:27:31.216Z,420.3077
2023-05-08T01:28:32.319Z,420.2308
2023-05-08T01:29:33.800Z,420.9231
2023-05-08T01:30:34.508Z,422.0769
2023-05-08T01:31:35.612Z,421.5385
2023-05-08T01:32:36.764Z,421.5385
2023-05-08T01:33:37.859Z,420.4615
2023-05-08T01:34:38.954Z,418.5385
2023-05-08T01:35:40.005Z,416.8462
2023-05-08T01:36:41.107Z,416.6923
2023-05-08T01:37:42.215Z,419.3077
2023-05-08T01:38:43.301Z,420.2308
2023-05-08T01:39:44.404Z,422.5385
2023-05-08T01:40:45.488Z,426.3077
2023-05-08T01:41:46.630Z,428.0769
2023-05-08T01:42:47.706Z,428.8462
2023-05-08T01:43:48.815Z,429.3077
2023-05-08T01:44:49.905Z,428.6923
2023-05-08T01:45:50.999Z,426.1538
2023-05-08T01:46:52.198Z,422.2308
2023-05-08T01:47:53.189Z,420.0769
2023-05-08T01:48:54.292Z,421.7692
2023-05-08T01:49:55.385Z,421.5385
2023-05-08T01:50:56.474Z,424.0769
2023-05-08T01:51:57.581Z,425.0769
2023-05-08T01:52:58.679Z,425.5385
2023-05-08T01:53:59.801Z,425.0769
2023-05-08T01:55:00.874Z,425.9231
2023-05-08T01:56:01.949Z,424.0000
2023-05-08T01:57:03.058Z,423.7692
2023-05-08T01:58:04.162Z,424.6154
2023-05-08T01:59:05.237Z,423.9231
2023-05-08T02:00:06.346Z,421.8462
2023-05-08T02:01:07.528Z,420.2308
2023-05-08T02:02:08.589Z,421.0769
2023-05-08T02:03:09.719Z,422.9231
2023-05-08T02:04:10.767Z,425.2308
2023-05-08T02:05:11.868Z,425.7692
2023-05-08T02:06:12.927Z,424.2308
2023-05-08T02:07:14.052Z,423.9231
2023-05-08T02:08:15.155Z,424.6154
2023-05-08T02:09:16.242Z,428.5385
2023-05-08T02:10:25.322Z,430.7692
2023-05-08T02:11:18.431Z,432.6667
2023-05-08T02:12:19.546Z,431.4615
2023-05-08T02:13:20.780Z,431.2308
2023-05-08T02:14:21.741Z,431.1538
2023-05-08T02:15:22.846Z,428.7692
2023-05-08T02:16:23.975Z,430.0769
2023-05-08T02:17:25.060Z,431.9231
2023-05-08T02:18:26.140Z,432.5385
2023-05-08T02:19:27.248Z,430.4615
2023-05-08T02:20:28.418Z,429.8462
2023-05-08T02:21:29.512Z,428.2308
2023-05-08T02:22:30.617Z,429.3846
2023-05-08T02:23:31.725Z,428.9231
2023-05-08T02:24:32.798Z,427.9231
2023-05-08T02:25:33.905Z,427.9231
2023-05-08T02:26:35.016Z,432.0769
2023-05-08T02:27:36.143Z,434.0000
2023-05-08T02:28:37.235Z,436.3077
2023-05-08T02:29:38.329Z,438.1538
2023-05-08T02:30:39.436Z,435.6154
2023-05-08T02:31:40.584Z,434.0769
2023-05-08T02:32:41.656Z,433.0769
2023-05-08T02:33:42.735Z,432.9231
2023-05-08T02:34:54.920Z,433.3077
2023-05-08T02:35:45.933Z,431.0000
2023-05-08T02:36:46.013Z,430.0000
2023-05-08T02:37:47.133Z,428.2308
2023-05-08T02:38:48.220Z,425.9231
2023-05-08T02:39:49.314Z,426.0000
2023-05-08T02:40:50.434Z,428.3077
2023-05-08T02:41:51.542Z,428.8462
2023-05-08T02:42:52.648Z,430.0769
2023-05-08T02:43:53.731Z,430.6154
2023-05-08T02:44:54.853Z,428.6154
2023-05-08T02:45:55.941Z,426.2308
2023-05-08T02:46:57.041Z,429.1538
2023-05-08T02:47:58.138Z,430.0769
2023-05-08T02:48:59.228Z,428.5385
2023-05-08T02:50:00.419Z,428.6923
2023-05-08T02:51:01.417Z,430.3077
2023-05-08T02:52:02.529Z,429.8462
2023-05-08T02:53:03.648Z,427.4615
2023-05-08T02:54:04.734Z,426.6154
2023-05-08T02:55:05.808Z,426.2308
2023-05-08T02:56:06.918Z,427.8462
2023-05-08T02:57:08.011Z,427.9231
2023-05-08T02:58:09.099Z,425.9231
2023-05-08T02:59:10.216Z,425.0000
2023-05-08T03:00:11.483Z,423.5385
2023-05-08T03:01:12.418Z,424.9231
2023-05-08T03:02:13.555Z,425.6154
2023-05-08T03:03:14.669Z,428.7692
2023-05-08T03:04:15.712Z,429.9231
2023-05-08T03:05:16.809Z,429.3077
2023-05-08T03:06:17.899Z,430.3077
2023-05-08T03:07:19.011Z,430.9231
2023-05-08T03:08:20.086Z,428.5385
2023-05-08T03:09:21.228Z,425.9231
2023-05-08T03:10:22.283Z,426.3846
2023-05-08T03:11:23.408Z,424.8462
2023-05-08T03:12:24.485Z,427.1538
2023-05-08T03:13:25.626Z,426.8462
2023-05-08T03:14:26.693Z,427.0769
2023-05-08T03:15:27.779Z,424.3077
2023-05-08T03:16:28.954Z,424.5385
2023-05-08T03:17:30.022Z,424.4615
2023-05-08T03:18:31.078Z,423.6923
2023-05-08T03:19:32.146Z,425.5385
2023-05-08T03:20:33.249Z,425.4615
2023-05-08T03:21:34.386Z,429.0769
2023-05-08T03:22:35.461Z,430.6923
2023-05-08T03:23:36.545Z,425.6154
2023-05-08T03:24:37.665Z,427.4615
2023-05-08T03:25:38.753Z,427.9231
2023-05-08T03:26:39.859Z,429.5385
2023-05-08T03:27:40.985Z,431.3846
2023-05-08T03:28:42.106Z,434.6154
2023-05-08T03:29:43.174Z,436.7692
2023-05-08T03:30:44.301Z,432.3846
2023-05-08T03:31:45.392Z,430.5385
2023-05-08T03:32:46.511Z,429.7692
2023-05-08T03:33:47.590Z,431.3077
2023-05-08T03:34:48.683Z,432.7692
2023-05-08T03:35:49.826Z,431.3077
2023-05-08T03:36:50.885Z,434.3846
2023-05-08T03:37:52.028Z,431.6154
2023-05-08T03:38:53.086Z,432.0769
2023-05-08T03:39:54.202Z,435.2308
2023-05-08T03:40:55.343Z,435.6154
2023-05-08T03:41:56.404Z,433.2308
2023-05-08T03:42:57.541Z,429.7692
2023-05-08T03:43:58.643Z,428.0769
2023-05-08T03:44:59.703Z,429.2308
2023-05-08T03:46:00.805Z,431.3846
2023-05-08T03:47:02.005Z,430.4615
2023-05-08T03:48:03.052Z,428.8462
2023-05-08T03:49:04.142Z,427.8462
2023-05-08T03:50:05.229Z,428.9231
2023-05-08T03:51:06.362Z,432.6154
2023-05-08T03:52:07.438Z,433.2308
2023-05-08T03:53:08.573Z,434.3077
2023-05-08T03:54:09.634Z,433.9231
2023-05-08T03:55:10.763Z,433.0000
2023-05-08T03:56:11.858Z,433.0769
2023-05-08T03:57:12.951Z,433.5385
2023-05-08T03:58:14.078Z,431.3077
2023-05-08T03:59:15.212Z,429.3077
2023-05-08T04:00:16.267Z,429.2308
2023-05-08T04:01:17.405Z,424.9231
2023-05-08T04:02:18.592Z,426.8462
2023-05-08T04:03:19.677Z,425.9231
2023-05-08T04:04:20.785Z,427.3846
2023-05-08T04:05:21.780Z,429.4615
2023-05-08T04:06:22.885Z,427.8462
2023-05-08T04:07:23.961Z,427.8462
2023-05-08T04:08:25.103Z,427.8462
2023-05-08T04:09:26.188Z,429.6154
2023-05-08T04:10:27.280Z,431.6923
2023-05-08T04:11:28.368Z,432.2308
2023-05-08T04:12:29.480Z,431.8462
2023-05-08T04:13:30.830Z,432.6154
2023-05-08T04:14:31.687Z,434.5385
2023-05-08T04:15:32.766Z,436.4615
2023-05-08T04:16:33.909Z,436.6154
2023-05-08T04:17:35.034Z,436.9231
2023-05-08T04:18:36.069Z,437.6154
2023-05-08T04:19:37.177Z,438.3077
2023-05-08T04:20:38.282Z,436.6923
2023-05-08T04:21:39.364Z,435.3846
2023-05-08T04:22:40.481Z,434.6154
2023-05-08T04:23:41.578Z,435.3077
2023-05-08T04:24:42.664Z,437.5385
2023-05-08T04:25:43.755Z,437.6923
2023-05-08T04:26:44.856Z,435.5385
2023-05-08T04:27:45.966Z,432.9231
2023-05-08T04:28:47.083Z,431.2308
2023-05-08T04:29:48.213Z,431.2308
2023-05-08T04:30:49.282Z,432.4615
2023-05-08T04:31:50.405Z,433.2308
2023-05-08T04:32:51.529Z,432.0000
2023-05-08T04:33:52.564Z,433.3077
2023-05-08T04:34:53.658Z,435.6154
2023-05-08T04:35:54.745Z,434.5385
2023-05-08T04:36:55.844Z,431.0000
2023-05-08T04:37:56.965Z,430.0769
2023-05-08T04:38:59.140Z,429.8462
2023-05-08T04:39:59.168Z,433.2308
2023-05-08T04:41:00.286Z,435.3846
2023-05-08T04:42:01.356Z,436.1538
2023-05-08T04:43:02.452Z,437.6154
2023-05-08T04:44:03.561Z,437.2308
2023-05-08T04:45:04.661Z,434.3077
2023-05-08T04:46:05.837Z,434.2308
2023-05-08T04:47:06.834Z,434.2308
2023-05-08T04:48:08.001Z,434.3846
2023-05-08T04:49:09.043Z,435.2308
2023-05-08T04:50:10.126Z,438.4615
2023-05-08T04:51:11.236Z,438.3077
2023-05-08T04:52:12.323Z,436.0769
2023-05-08T04:53:13.440Z,435.9231
2023-05-08T04:54:14.543Z,433.0769
2023-05-08T04:55:15.607Z,434.3846
2023-05-08T04:56:16.721Z,431.3846
2023-05-08T04:57:17.816Z,434.2308
2023-05-08T04:58:18.909Z,434.7692
2023-05-08T04:59:20.009Z,435.1538
2023-05-08T05:00:21.107Z,437.7692
2023-05-08T05:01:22.221Z,433.3077
2023-05-08T05:02:23.306Z,432.8462
2023-05-08T05:03:24.521Z,435.0000
2023-05-08T05:04:25.499Z,437.0769
2023-05-08T05:05:26.595Z,439.2308
2023-05-08T05:06:27.696Z,437.6923
2023-05-08T05:07:28.807Z,435.8462
2023-05-08T05:08:29.910Z,433.0769
2023-05-08T05:09:31.020Z,430.5385
2023-05-08T05:10:32.101Z,431.1538
2023-05-08T05:11:33.189Z,430.5385
2023-05-08T05:12:34.277Z,432.4615
2023-05-08T05:13:35.393Z,435.0000
2023-05-08T05:14:36.523Z,432.3077
2023-05-08T05:15:37.583Z,429.9231
2023-05-08T05:16:38.783Z,431.1538
2023-05-08T05:17:39.817Z,431.9231
2023-05-08T05:18:40.912Z,429.9231
2023-05-08T05:19:42.018Z,430.6923
2023-05-08T05:20:43.094Z,429.9231
2023-05-08T05:21:44.196Z,428.3077
2023-05-08T05:22:45.305Z,427.1538
2023-05-08T05:23:46.386Z,429.7692
2023-05-08T05:24:47.504Z,428.6154
2023-05-08T05:25:48.607Z,428.0000
2023-05-08T05:26:49.704Z,427.1538
2023-05-08T05:27:50.798Z,424.6923
2023-05-08T05:28:51.900Z,422.6154
2023-05-08T05:29:53.010Z,424.3846
2023-05-08T05:30:54.090Z,426.5385
2023-05-08T05:31:55.208Z,426.8462
2023-05-08T05:32:56.327Z,429.2308
2023-05-08T05:33:57.374Z,430.3846
2023-05-08T05:34:58.485Z,429.5385
2023-05-08T05:35:59.576Z,428.1538
2023-05-08T05:37:00.678Z,426.7692
2023-05-08T05:38:01.777Z,427.2308
2023-05-08T05:39:02.883Z,426.9231
2023-05-08T05:40:03.986Z,425.4615
2023-05-08T05:41:05.074Z,425.5385
2023-05-08T05:42:06.193Z,427.0000
2023-05-08T05:43:07.277Z,429.5385
2023-05-08T05:44:08.394Z,431.1538
2023-05-08T05:45:09.489Z,432.4615
2023-05-08T05:46:10.574Z,432.3846
2023-05-08T05:47:11.815Z,433.6154
2023-05-08T05:48:12.902Z,435.3846
2023-05-08T05:49:13.881Z,435.5385
2023-05-08T05:50:15.052Z,435.3846
2023-05-08T05:51:16.093Z,435.2308
2023-05-08T05:52:17.190Z,436.3846
2023-05-08T05:53:18.265Z,436.9231
2023-05-08T05:54:19.357Z,436.9231
2023-05-08T05:55:20.480Z,437.6154
2023-05-08T05:56:21.557Z,437.3846
2023-05-08T05:57:22.661Z,437.6923
2023-05-08T05:58:23.754Z,436.5385
2023-05-08T05:59:24.850Z,436.1538
2023-05-08T06:00:25.947Z,434.3077
2023-05-08T06:01:27.050Z,433.9231
2023-05-08T06:02:28.239Z,435.3077
2023-05-08T06:03:29.308Z,434.0769
2023-05-08T06:04:30.510Z,436.8462
2023-05-08T06:05:31.469Z,437.2308
2023-05-08T06:06:32.551Z,435.9231
2023-05-08T06:07:33.645Z,436.5385
2023-05-08T06:08:34.756Z,436.6923
2023-05-08T06:09:35.848Z,435.0000
2023-05-08T06:10:36.957Z,437.1538
2023-05-08T06:11:38.035Z,441.3077
2023-05-08T06:12:39.212Z,443.3077
2023-05-08T06:13:40.242Z,441.0000
2023-05-08T06:14:41.320Z,442.3846
2023-05-08T06:15:42.452Z,447.2308
2023-05-08T06:16:43.655Z,449.7692
2023-05-08T06:17:44.686Z,446.9231
2023-05-08T06:18:45.724Z,443.1538
2023-05-08T06:19:46.816Z,440.6154
2023-05-08T06:20:48.009Z,440.6923
2023-05-08T06:21:49.096Z,439.5385
2023-05-08T06:22:50.205Z,438.9231
2023-05-08T06:23:51.300Z,438.3846
2023-05-08T06:24:52.393Z,438.2308
2023-05-08T06:25:53.502Z,438.2308
2023-05-08T06:26:54.592Z,439.6923
2023-05-08T06:27:55.694Z,439.9231
2023-05-08T06:28:56.803Z,439.5385
2023-05-08T06:29:57.915Z,437.0769
2023-05-08T06:30:59.065Z,437.1538
2023-05-08T06:32:00.132Z,436.3077
2023-05-08T06:33:01.325Z,437.2308
2023-05-08T06:34:02.271Z,437.6923
2023-05-08T06:35:03.395Z,437.6923
2023-05-08T06:36:04.491Z,438.7692
2023-05-08T06:37:05.579Z,438.1538
2023-05-08T06:38:06.674Z,440.2308
2023-05-08T06:39:07.798Z,439.6923
2023-05-08T06:40:12.694Z,438.6154
2023-05-08T06:41:09.992Z,437.7692
2023-05-08T06:42:11.074Z,438.5385
2023-05-08T06:43:12.170Z,435.9231
2023-05-08T06:44:13.270Z,435.0769
2023-05-08T06:45:14.582Z,434.6923
2023-05-08T06:46:15.555Z,436.4615
2023-05-08T06:47:16.700Z,436.6154
2023-05-08T06:48:17.656Z,433.9231
2023-05-08T06:49:18.774Z,433.6154
2023-05-08T06:50:19.867Z,436.2308
2023-05-08T06:51:20.955Z,435.7692
2023-05-08T06:52:22.049Z,435.5385
2023-05-08T06:53:23.161Z,435.3846
2023-05-08T06:54:24.248Z,437.6923
2023-05-08T06:55:25.366Z,438.3077
2023-05-08T06:56:26.465Z,440.8462
2023-05-08T06:57:27.549Z,441.9231
2023-05-08T06:58:28.645Z,442.1538
2023-05-08T06:59:29.742Z,440.7692
2023-05-08T07:00:30.872Z,440.0000
2023-05-08T07:01:32.006Z,439.2308
2023-05-08T07:02:33.117Z,437.8462
2023-05-08T07:03:34.139Z,437.1538
2023-05-08T07:04:35.285Z,438.7692
2023-05-08T07:05:36.337Z,438.0000
2023-05-08T07:06:37.458Z,438.3846
2023-05-08T07:07:38.540Z,440.0000
2023-05-08T07:08:39.624Z,438.7692
2023-05-08T07:09:40.734Z,440.1538
2023-05-08T07:10:41.845Z,440.3846
2023-05-08T07:11:42.939Z,437.6154
2023-05-08T07:12:44.077Z,437.3846
2023-05-08T07:13:45.145Z,438.1538
2023-05-08T07:14:46.242Z,439.2308
2023-05-08T07:15:47.339Z,441.7692
2023-05-08T07:16:48.458Z,444.2308
2023-05-08T07:17:49.583Z,446.2308
2023-05-08T07:18:50.620Z,446.4615
2023-05-08T07:19:51.719Z,448.9231
2023-05-08T07:20:52.826Z,450.5385
2023-05-08T07:21:53.944Z,452.9231
2023-05-08T07:22:54.987Z,450.5385
2023-05-08T07:23:56.101Z,450.6154
2023-05-08T07:24:57.222Z,449.1538
2023-05-08T07:25:58.285Z,448.8462
2023-05-08T07:26:59.399Z,446.6923
2023-05-08T07:28:01.504Z,446.0000
2023-05-08T07:29:01.573Z,446.2308
2023-05-08T07:30:02.682Z,446.0769
2023-05-08T07:31:03.861Z,447.0000
2023-05-08T07:32:04.954Z,447.0000
2023-05-08T07:33:06.050Z,448.0000
2023-05-08T07:34:07.058Z,446.4615
2023-05-08T07:35:09.752Z,446.0769
2023-05-08T07:36:09.236Z,446.5385
2023-05-08T07:37:10.375Z,445.5385
2023-05-08T07:38:11.455Z,445.1538
2023-05-08T07:39:12.558Z,447.5385
2023-05-08T07:40:13.644Z,447.8462
2023-05-08T07:41:14.783Z,446.0000
2023-05-08T07:42:15.861Z,445.3846
2023-05-08T07:43:16.914Z,444.6154
2023-05-08T07:44:18.060Z,443.5385
2023-05-08T07:45:19.119Z,442.8462
2023-05-08T07:46:20.229Z,441.7692
2023-05-08T07:47:21.322Z,442.4615
2023-05-08T07:48:22.477Z,444.3077
2023-05-08T07:49:23.487Z,445.2308
2023-05-08T07:50:24.573Z,443.6154
2023-05-08T07:51:25.684Z,443.0000
2023-05-08T07:52:26.785Z,443.0000
2023-05-08T07:53:27.854Z,442.8462
2023-05-08T07:54:28.953Z,444.3077
2023-05-08T07:55:30.061Z,445.1538
2023-05-08T07:56:31.142Z,445.5385
2023-05-08T07:57:32.246Z,445.3846
2023-05-08T07:58:33.354Z,443.4615
2023-05-08T07:59:34.458Z,443.9231
2023-05-08T08:00:35.516Z,442.5385
2023-05-08T08:01:36.727Z,444.6154
2023-05-08T08:02:37.845Z,443.6154
2023-05-08T08:03:38.988Z,442.6923
2023-05-08T08:04:40.020Z,442.7692
2023-05-08T08:05:41.030Z,443.7692
2023-05-08T08:06:42.101Z,443.3846
2023-05-08T08:07:43.229Z,443.3077
2023-05-08T08:08:44.298Z,443.6923
2023-05-08T08:09:45.398Z,444.2308
2023-05-08T08:10:46.479Z,444.0769
2023-05-08T08:11:47.583Z,445.0769
2023-05-08T08:12:48.769Z,445.1538
2023-05-08T08:13:49.781Z,446.0000
2023-05-08T08:14:50.875Z,446.6923
2023-05-08T08:15:52.022Z,445.3846
2023-05-08T08:16:53.135Z,442.4615
2023-05-08T08:17:54.239Z,443.3077
2023-05-08T08:18:55.369Z,442.3846
2023-05-08T08:19:56.402Z,443.3846
2023-05-08T08:20:57.482Z,444.0769
2023-05-08T08:21:58.568Z,444.0000
2023-05-08T08:22:59.666Z,443.9231
2023-05-08T08:24:00.759Z,444.5385
2023-05-08T08:25:01.872Z,444.9231
2023-05-08T08:26:02.977Z,446.5385
2023-05-08T08:27:04.062Z,452.1538
2023-05-08T08:28:05.185Z,456.9231
2023-05-08T08:29:06.259Z,458.1538
2023-05-08T08:30:16.695Z,457.3077
2023-05-08T08:31:09.481Z,455.4615
2023-05-08T08:32:09.562Z,452.8462
2023-05-08T08:33:10.761Z,449.0000
2023-05-08T08:34:11.860Z,447.4615
2023-05-08T08:35:13.376Z,446.7692
2023-05-08T08:36:13.973Z,445.6154
2023-05-08T08:37:15.059Z,445.0000
2023-05-08T08:38:16.184Z,445.1538
2023-05-08T08:39:17.262Z,446.5385
2023-05-08T08:40:18.392Z,447.4615
2023-05-08T08:41:19.470Z,450.3846
2023-05-08T08:42:20.596Z,451.4615
2023-05-08T08:43:21.682Z,452.1538
2023-05-08T08:44:22.763Z,452.5385
2023-05-08T08:45:23.877Z,452.5385
2023-05-08T08:46:25.014Z,453.3846
2023-05-08T08:47:26.108Z,454.0769
2023-05-08T08:48:27.170Z,454.3077
2023-05-08T08:49:28.360Z,453.3077
2023-05-08T08:50:29.389Z,459.6923
2023-05-08T08:51:30.474Z,461.0000
2023-05-08T08:52:31.585Z,456.6154
2023-05-08T08:53:32.692Z,455.3077
2023-05-08T08:54:33.770Z,455.0769
2023-05-08T08:55:34.872Z,456.9231
2023-05-08T08:56:36.014Z,455.2308
2023-05-08T08:57:37.099Z,453.2308
2023-05-08T08:58:39.250Z,453.3846
2023-05-08T08:59:39.287Z,452.8462
2023-05-08T09:00:40.395Z,453.0769
2023-05-08T09:01:41.500Z,454.3846
2023-05-08T09:02:42.647Z,450.7692
2023-05-08T09:03:43.799Z,448.0769
2023-05-08T09:04:44.847Z,446.3846
2023-05-08T09:05:45.884Z,443.1538
2023-05-08T09:06:46.968Z,446.1538
2023-05-08T09:07:48.076Z,445.0769
2023-05-08T09:08:49.200Z,445.1538
2023-05-08T09:09:50.270Z,444.4615
2023-05-08T09:10:51.368Z,445.1538
2023-05-08T09:11:52.502Z,447.0769
2023-05-08T09:12:53.590Z,446.5385
2023-05-08T09:13:54.685Z,443.9231
2023-05-08T09:14:55.789Z,442.8462
2023-05-08T09:15:56.895Z,443.3077
2023-05-08T09:16:57.987Z,445.7692
2023-05-08T09:17:59.171Z,446.6154
2023-05-08T09:19:00.184Z,445.4615
2023-05-08T09:20:01.374Z,445.0000
2023-05-08T09:21:02.394Z,442.9231
2023-05-08T09:22:03.493Z,438.9231
2023-05-08T09:23:04.673Z,440.7692
2023-05-08T09:24:05.695Z,441.5385
2023-05-08T09:25:06.785Z,438.1538
2023-05-08T09:26:07.893Z,436.0769
2023-05-08T09:27:08.982Z,433.0769
2023-05-08T09:28:10.078Z,434.6923
2023-05-08T09:29:11.213Z,434.6923
2023-05-08T09:30:12.310Z,435.9231
2023-05-08T09:31:13.402Z,434.0000
2023-05-08T09:32:14.485Z,434.3846
2023-05-08T09:33:15.660Z,433.9231
2023-05-08T09:34:16.675Z,434.1538
2023-05-08T09:35:17.984Z,435.2308
2023-05-08T09:36:18.851Z,433.0000
2023-05-08T09:37:19.963Z,435.0769
2023-05-08T09:38:21.046Z,436.8462
2023-05-08T09:39:22.159Z,435.7692
2023-05-08T09:40:23.287Z,433.7692
2023-05-08T09:41:24.358Z,436.2308
2023-05-08T09:42:25.461Z,437.6154
2023-05-08T09:43:26.562Z,439.1538
2023-05-08T09:44:27.670Z,440.8462
2023-05-08T09:45:28.841Z,440.3077
2023-05-08T09:46:29.887Z,442.6154
2023-05-08T09:47:30.967Z,446.5385
2023-05-08T09:48:32.060Z,449.3077
2023-05-08T09:49:33.148Z,447.6154
2023-05-08T09:50:34.327Z,448.2308
2023-05-08T09:51:35.344Z,448.0769
2023-05-08T09:52:36.497Z,444.5385
2023-05-08T09:53:37.548Z,441.6154
2023-05-08T09:54:38.640Z,440.3846
2023-05-08T09:55:39.729Z,440.6154
2023-05-08T09:56:40.843Z,439.0000
2023-05-08T09:57:41.926Z,438.3077
2023-05-08T09:58:43.074Z,436.3846
2023-05-08T09:59:44.142Z,438.0000
2023-05-08T10:00:45.281Z,440.7692
2023-05-08T10:01:46.345Z,444.8462
2023-05-08T10:02:47.462Z,442.8462
2023-05-08T10:03:48.593Z,444.9231
2023-05-08T10:04:49.685Z,447.4615
2023-05-08T10:05:50.840Z,451.1538
2023-05-08T10:06:52.357Z,450.3846
2023-05-08T10:07:52.960Z,447.5385
2023-05-08T10:08:54.055Z,445.3077
2023-05-08T10:09:55.180Z,444.2308
2023-05-08T10:10:56.245Z,444.9231
2023-05-08T10:11:57.348Z,443.3077
2023-05-08T10:12:58.549Z,447.9231
2023-05-08T10:13:59.541Z,450.0769
2023-05-08T10:15:00.665Z,451.7692
2023-05-08T10:16:01.733Z,454.9231
2023-05-08T10:17:02.921Z,452.6154
2023-05-08T10:18:04.088Z,452.3077
2023-05-08T10:19:05.062Z,450.9231
2023-05-08T10:20:06.170Z,449.5385
2023-05-08T10:21:07.332Z,450.8462
2023-05-08T10:22:08.433Z,448.6923
2023-05-08T10:23:09.523Z,451.2308
2023-05-08T10:24:10.638Z,452.6154
2023-05-08T10:25:11.991Z,453.1538
2023-05-08T10:26:12.840Z,453.4615
2023-05-08T10:27:13.939Z,451.5385
2023-05-08T10:28:15.045Z,448.7692
2023-05-08T10:29:16.150Z,444.3846
2023-05-08T10:30:17.274Z,439.3077
2023-05-08T10:31:18.401Z,438.7692
2023-05-08T10:32:19.434Z,438.3846
2023-05-08T10:33:20.559Z,440.9231
2023-05-08T10:34:21.649Z,439.4615
2023-05-08T10:35:22.754Z,437.6923
2023-05-08T10:36:23.927Z,436.6154
2023-05-08T10:37:24.953Z,437.3846
2023-05-08T10:38:26.075Z,436.3846
2023-05-08T10:39:27.156Z,433.4615
2023-05-08T10:40:28.259Z,432.8462
2023-05-08T10:41:29.361Z,431.6154
2023-05-08T10:42:30.462Z,431.3077
2023-05-08T10:43:31.603Z,433.0000
2023-05-08T10:44:32.673Z,434.7692
2023-05-08T10:45:33.787Z,434.3846
2023-05-08T10:46:34.893Z,435.0769
2023-05-08T10:47:36.023Z,433.6923
2023-05-08T10:48:37.105Z,433.0000
2023-05-08T10:49:38.210Z,431.7692
2023-05-08T10:50:39.321Z,430.3077
2023-05-08T10:51:40.423Z,429.0769
2023-05-08T10:52:41.520Z,430.3846
2023-05-08T10:53:42.620Z,428.3077
2023-05-08T10:54:43.719Z,429.3846
2023-05-08T10:55:44.839Z,428.8462
2023-05-08T10:56:45.933Z,428.8462
2023-05-08T10:57:47.031Z,429.2308
2023-05-08T10:58:48.124Z,428.0000
2023-05-08T10:59:49.223Z,429.5385
2023-05-08T11:00:50.314Z,433.6154
2023-05-08T11:01:51.460Z,434.7692
2023-05-08T11:02:52.560Z,436.8462
2023-05-08T11:03:53.682Z,437.1538
2023-05-08T11:04:54.702Z,433.4615
2023-05-08T11:05:55.819Z,432.3077
2023-05-08T11:06:56.925Z,433.6923
2023-05-08T11:07:58.027Z,432.3077
2023-05-08T11:09:00.612Z,426.6154
2023-05-08T11:10:00.209Z,424.6923
2023-05-08T11:11:01.374Z,423.1538
2023-05-08T11:12:02.428Z,423.9231
2023-05-08T11:13:03.539Z,425.6923
2023-05-08T11:14:04.638Z,426.2308
2023-05-08T11:15:05.744Z,427.5385
2023-05-08T11:16:06.912Z,430.0000
2023-05-08T11:17:07.970Z,429.3846
2023-05-08T11:18:09.175Z,431.3846
2023-05-08T11:19:10.142Z,430.0769
2023-05-08T11:20:11.257Z,432.0769
2023-05-08T11:21:12.358Z,432.7692
2023-05-08T11:22:13.479Z,432.6154
2023-05-08T11:23:14.552Z,431.4615
2023-05-08T11:24:15.681Z,430.3846
2023-05-08T11:25:16.795Z,429.0769
2023-05-08T11:26:17.904Z,430.2308
2023-05-08T11:27:18.990Z,431.2308
2023-05-08T11:28:20.109Z,432.8462
2023-05-08T11:29:21.214Z,433.3846
2023-05-08T11:30:22.324Z,432.1538
2023-05-08T11:31:23.493Z,428.1538
2023-05-08T11:32:24.576Z,427.6923
2023-05-08T11:33:25.648Z,426.6923
2023-05-08T11:34:26.753Z,427.5385
2023-05-08T11:35:27.842Z,427.4615
2023-05-08T11:36:29.008Z,426.0769
2023-05-08T11:37:30.053Z,423.8462
2023-05-08T11:38:31.163Z,424.7692
2023-05-08T11:39:32.275Z,426.7692
2023-05-08T11:40:33.369Z,429.3077
2023-05-08T11:41:34.479Z,429.7692
2023-05-08T11:42:35.578Z,429.8462
2023-05-08T11:43:36.721Z,431.6923
2023-05-08T11:44:37.787Z,432.1538
2023-05-08T11:45:38.903Z,431.8462
2023-05-08T11:46:40.076Z,433.0769
2023-05-08T11:47:41.178Z,434.9231
2023-05-08T11:48:42.222Z,441.0000
2023-05-08T11:49:43.323Z,443.7692
2023-05-08T11:50:44.430Z,443.9231
2023-05-08T11:51:45.559Z,441.8462
2023-05-08T11:52:46.636Z,440.9231
2023-05-08T11:53:47.763Z,441.0000
2023-05-08T11:54:48.857Z,440.6154
2023-05-08T11:55:49.961Z,446.3846
2023-05-08T11:56:51.080Z,447.0769
2023-05-08T11:57:52.193Z,445.8462